createdAt,value
2023-06-14T00:02:46.460Z,20.40
2023-06-14T00:07:49.630Z,22.70
2023-06-14T00:12:51.741Z,18.70
2023-06-14T00:17:53.640Z,22.00
2023-06-14T00:22:56.408Z,22.30
2023-06-14T00:27:59.182Z,19.80
2023-06-14T00:33:01.241Z,19.80
2023-06-14T00:38:03.486Z,21.40
2023-06-14T00:43:05.567Z,17.20
2023-06-14T00:48:08.810Z,21.00
2023-06-14T00:53:11.194Z,17.90
2023-06-14T00:58:13.203Z,15.70
2023-06-14T01:03:23.299Z,17.90
2023-06-14T01:08:59.754Z,23.10
2023-06-14T01:14:04.214Z,20.50
2023-06-14T01:19:07.681Z,18.50
2023-06-14T01:24:10.559Z,18.00
2023-06-14T01:29:17.716Z,14.70
2023-06-14T01:34:21.550Z,17.50
2023-06-14T01:39:27.420Z,15.60
2023-06-14T01:44:32.324Z,22.60
2023-06-14T01:49:36.909Z,16.50
2023-06-14T01:54:43.114Z,21.40
2023-06-14T01:59:56.765Z,21.40
2023-06-14T02:04:58.776Z,15.80
2023-06-14T02:10:00.736Z,15.00
2023-06-14T02:15:02.495Z,13.60
2023-06-14T02:20:06.114Z,24.00
2023-06-14T02:25:08.969Z,18.00
2023-06-14T02:30:11.654Z,17.00
2023-06-14T02:35:14.376Z,19.80
2023-06-14T02:40:16.401Z,17.70
2023-06-14T02:45:18.820Z,26.20
2023-06-14T02:50:22.666Z,29.10
2023-06-14T02:55:24.800Z,20.40
2023-06-14T03:00:27.483Z,17.50
2023-06-14T03:05:29.369Z,18.90
2023-06-14T03:10:31.685Z,21.60
2023-06-14T03:15:34.638Z,17.90
2023-06-14T03:20:37.300Z,26.10
2023-06-14T03:25:39.801Z,20.90
2023-06-14T03:30:42.152Z,17.60
2023-06-14T03:35:44.897Z,18.20
2023-06-14T03:40:47.841Z,16.10
2023-06-14T03:45:49.864Z,20.30
2023-06-14T03:50:52.572Z,16.10
2023-06-14T03:56:09.579Z,13.10
2023-06-14T04:07:14.395Z,14.90
2023-06-14T04:12:16.280Z,18.30
2023-06-14T04:17:18.099Z,21.60
2023-06-14T04:22:21.301Z,22.00
2023-06-14T04:27:26.309Z,14.30
2023-06-14T04:32:30.615Z,17.70
2023-06-14T04:37:33.059Z,15.10
2023-06-14T04:42:38.020Z,18.00
2023-06-14T04:47:43.202Z,18.90
2023-06-14T04:52:45.304Z,14.30
2023-06-14T04:57:47.337Z,21.20
2023-06-14T05:02:50.430Z,22.80
2023-06-14T05:07:52.370Z,21.90
2023-06-14T05:12:55.452Z,22.60
2023-06-14T05:17:57.552Z,20.60
2023-06-14T05:22:59.430Z,25.30
2023-06-14T05:28:01.255Z,23.50
2023-06-14T05:33:03.174Z,20.50
2023-06-14T05:38:05.020Z,21.90
2023-06-14T05:43:06.814Z,25.10
2023-06-14T05:48:08.584Z,22.10
2023-06-14T05:53:10.850Z,28.10
2023-06-14T05:58:14.741Z,19.20
2023-06-14T06:03:16.621Z,18.20
2023-06-14T06:08:18.446Z,19.80
2023-06-14T06:13:20.307Z,20.40
2023-06-14T06:18:22.341Z,16.70
2023-06-14T06:23:24.615Z,18.50
2023-06-14T06:28:26.386Z,18.30
2023-06-14T06:33:28.167Z,16.30
2023-06-14T06:38:30.966Z,15.80
2023-06-14T06:43:32.709Z,19.20
2023-06-14T06:48:34.990Z,18.80
2023-06-14T06:53:41.991Z,19.20
2023-06-14T06:58:46.286Z,17.30
2023-06-14T07:03:48.776Z,21.70
2023-06-14T07:08:50.558Z,17.30
2023-06-14T07:13:52.297Z,19.90
2023-06-14T07:18:54.215Z,18.90
2023-06-14T07:23:56.353Z,16.70
2023-06-14T07:28:58.219Z,22.30
2023-06-14T07:34:00.223Z,16.80
2023-06-14T07:39:04.501Z,13.80
2023-06-14T07:44:06.468Z,16.10
2023-06-14T07:49:08.622Z,14.90
2023-06-14T07:54:10.519Z,22.80
2023-06-14T07:59:12.292Z,14.60
2023-06-14T08:04:15.409Z,15.20
2023-06-14T08:09:17.521Z,13.00
2023-06-14T08:14:19.224Z,14.10
2023-06-14T08:19:21.048Z,12.10
2023-06-14T08:24:25.835Z,11.70
2023-06-14T08:29:30.430Z,11.20
2023-06-14T08:34:32.173Z,11.90
2023-06-14T08:39:33.867Z,7.20
2023-06-14T08:44:35.937Z,6.10
2023-06-14T08:49:39.246Z,6.10
2023-06-14T08:54:44.796Z,6.80
2023-06-14T08:59:53.594Z,6.30
2023-06-14T09:04:55.359Z,4.80
2023-06-14T09:10:12.532Z,5.10
2023-06-14T09:15:15.393Z,3.50
2023-06-14T09:20:20.787Z,6.50
2023-06-14T09:25:38.020Z,12.90
2023-06-14T09:30:41.043Z,6.40
2023-06-14T09:35:42.799Z,4.10
2023-06-14T09:40:44.677Z,2.60
2023-06-14T09:45:49.972Z,4.70
2023-06-14T09:50:52.039Z,17.20
2023-06-14T09:55:57.024Z,4.10
2023-06-14T10:01:00.195Z,5.30
2023-06-14T10:06:06.972Z,5.80
2023-06-14T10:11:08.987Z,5.60
2023-06-14T10:16:18.980Z,5.00
2023-06-14T10:21:33.443Z,5.30
2023-06-14T10:26:35.207Z,4.70
2023-06-14T10:31:46.148Z,4.60
2023-06-14T10:37:04.147Z,3.80
2023-06-14T10:42:07.274Z,4.10
2023-06-14T10:47:25.844Z,3.50
2023-06-14T10:52:30.125Z,9.60
2023-06-14T10:57:48.589Z,7.60
2023-06-14T11:03:17.746Z,4.70
2023-06-14T11:08:54.941Z,6.40
2023-06-14T11:13:56.754Z,13.10
2023-06-14T11:18:58.592Z,82.00
2023-06-14T11:24:01.065Z,62.30
2023-06-14T11:29:03.422Z,10.00
2023-06-14T11:34:07.211Z,7.00
2023-06-14T11:39:09.802Z,8.10
2023-06-14T11:44:12.899Z,7.90
2023-06-14T11:49:14.677Z,7.70
2023-06-14T11:54:16.623Z,6.60
2023-06-14T11:59:18.590Z,7.10
2023-06-14T12:04:30.250Z,6.00
2023-06-14T12:09:32.509Z,8.60
2023-06-14T12:14:34.232Z,7.00
2023-06-14T12:19:46.647Z,5.30
2023-06-14T12:24:48.322Z,3.80
2023-06-14T12:30:00.589Z,3.90
2023-06-14T12:35:02.787Z,4.60
2023-06-14T12:40:06.929Z,4.40
2023-06-14T12:45:09.517Z,3.60
2023-06-14T12:50:11.680Z,3.20
2023-06-14T12:55:13.398Z,2.40
2023-06-14T13:00:16.533Z,5.60
2023-06-14T13:05:19.529Z,5.10
2023-06-14T13:10:21.259Z,5.30
2023-06-14T13:15:23.022Z,4.30
2023-06-14T13:20:25.111Z,3.50
2023-06-14T13:25:26.995Z,5.50
2023-06-14T13:30:29.330Z,6.80
2023-06-14T13:35:31.462Z,5.80
2023-06-14T13:40:33.200Z,4.30
2023-06-14T13:45:34.964Z,4.30
2023-06-14T13:50:36.702Z,6.70
2023-06-14T13:55:38.433Z,5.80
2023-06-14T14:00:41.607Z,5.80
2023-06-14T14:05:43.730Z,6.90
2023-06-14T14:10:45.552Z,5.30
2023-06-14T14:15:47.571Z,6.40
2023-06-14T14:20:50.162Z,11.40
2023-06-14T14:25:51.883Z,8.30
2023-06-14T14:30:54.853Z,4.90
2023-06-14T14:35:56.772Z,3.80
2023-06-14T14:40:58.651Z,4.30
2023-06-14T14:46:00.346Z,4.10
2023-06-14T14:51:02.215Z,4.10
2023-06-14T14:56:06.341Z,3.90
2023-06-14T15:01:09.059Z,9.60
2023-06-14T15:06:10.816Z,5.40
2023-06-14T15:11:12.600Z,3.90
2023-06-14T15:16:14.300Z,4.40
2023-06-14T15:21:16.280Z,3.00
2023-06-14T15:26:18.013Z,2.80
2023-06-14T15:31:19.774Z,2.60
2023-06-14T15:36:21.650Z,2.60
2023-06-14T15:41:23.387Z,4.70
2023-06-14T15:46:25.146Z,4.20
2023-06-14T15:51:26.968Z,3.10
2023-06-14T15:56:28.662Z,3.30
2023-06-14T16:01:30.395Z,3.40
2023-06-14T16:06:32.325Z,2.70
2023-06-14T16:11:34.050Z,3.80
2023-06-14T16:16:35.790Z,2.50
2023-06-14T16:21:38.110Z,2.80
2023-06-14T16:26:39.940Z,3.20
2023-06-14T16:31:41.722Z,3.00
2023-06-14T16:36:44.604Z,2.00
2023-06-14T16:41:48.923Z,2.30
2023-06-14T16:46:50.677Z,2.30
2023-06-14T16:51:52.428Z,3.00
2023-06-14T16:56:54.139Z,2.30
2023-06-14T17:02:05.733Z,2.80
2023-06-14T17:07:08.293Z,3.20
2023-06-14T17:12:11.378Z,2.90
2023-06-14T17:17:13.254Z,3.40
2023-06-14T17:22:15.084Z,4.00
2023-06-14T17:27:17.065Z,4.40
2023-06-14T17:32:19.080Z,5.00
2023-06-14T17:37:21.415Z,4.40
2023-06-14T17:42:26.391Z,7.50
2023-06-14T17:47:36.240Z,5.00
2023-06-14T17:52:38.536Z,5.10
2023-06-14T17:57:42.558Z,5.00
2023-06-14T18:02:46.998Z,6.00
2023-06-14T18:07:49.136Z,5.60
2023-06-14T18:12:50.973Z,7.40
2023-06-14T18:17:55.204Z,8.90
2023-06-14T18:22:57.095Z,6.50
2023-06-14T18:27:58.856Z,8.50
2023-06-14T18:33:00.823Z,8.20
2023-06-14T18:38:02.648Z,9.50
2023-06-14T18:43:05.026Z,10.90
2023-06-14T18:48:07.070Z,7.60
2023-06-14T18:53:08.860Z,8.20
2023-06-14T18:58:11.476Z,8.20
2023-06-14T19:03:14.150Z,7.20
2023-06-14T19:08:16.008Z,10.70
2023-06-14T19:13:18.864Z,8.80
2023-06-14T19:18:24.982Z,11.10
2023-06-14T19:23:27.160Z,10.10
2023-06-14T19:28:28.892Z,10.20
2023-06-14T19:33:30.689Z,12.60
2023-06-14T19:38:33.666Z,9.20
2023-06-14T19:43:35.506Z,7.70
2023-06-14T19:48:37.449Z,8.80
2023-06-14T19:53:39.309Z,14.50
2023-06-14T19:58:42.850Z,15.60
2023-06-14T20:03:45.063Z,17.80
2023-06-14T20:08:46.928Z,12.10
2023-06-14T20:13:48.587Z,13.60
2023-06-14T20:18:50.357Z,11.80
2023-06-14T20:23:52.273Z,11.40
2023-06-14T20:28:54.233Z,15.30
2023-06-14T20:33:55.955Z,14.30
2023-06-14T20:38:58.804Z,13.90
2023-06-14T20:44:02.465Z,13.10
2023-06-14T20:49:04.417Z,13.40
2023-06-14T20:54:06.187Z,14.30
2023-06-14T20:59:08.369Z,10.40
2023-06-14T21:04:10.279Z,15.60
2023-06-14T21:09:12.049Z,10.90
2023-06-14T21:14:18.863Z,12.70
2023-06-14T21:19:22.419Z,10.70
2023-06-14T21:24:24.200Z,8.20
2023-06-14T21:29:26.010Z,10.30
2023-06-14T21:34:29.394Z,19.90
2023-06-14T21:39:50.040Z,10.50
2023-06-14T21:44:52.642Z,9.60
2023-06-14T21:49:54.296Z,12.30
2023-06-14T21:54:57.827Z,10.00
2023-06-14T22:00:00.481Z,10.60
2023-06-14T22:05:02.218Z,10.90
2023-06-14T22:10:04.351Z,13.50
2023-06-14T22:15:09.634Z,9.30
2023-06-14T22:20:14.294Z,9.90
2023-06-14T22:25:16.955Z,10.20
2023-06-14T22:30:19.884Z,11.20
2023-06-14T22:35:21.921Z,9.80
2023-06-14T22:40:23.856Z,11.30
2023-06-14T22:45:29.377Z,11.00
2023-06-14T22:50:31.744Z,11.40
2023-06-14T22:55:33.425Z,10.50
2023-06-14T23:00:35.153Z,9.50
2023-06-14T23:05:39.801Z,9.80
2023-06-14T23:10:48.199Z,10.90
2023-06-14T23:15:55.416Z,10.60
2023-06-14T23:20:57.254Z,10.10
2023-06-14T23:26:00.604Z,13.20
2023-06-14T23:31:03.459Z,13.60
2023-06-14T23:36:09.558Z,14.60
2023-06-14T23:41:11.696Z,10.80
2023-06-14T23:46:16.966Z,12.10
2023-06-14T23:51:39.113Z,12.50
2023-06-14T23:56:42.611Z,12.00
